NZAA/AKL METAR and TAF weather

Enter ICAO airport designator
Station Type Date Time Source
NZAA METAR 2022/07/03 14:00 UTC NOAA

NZAA 031400Z AUTO 25006KT 9999 NCD 10/08 Q1026 NOSIG


Station Type Date Time Source
NZAA Decoded METAR 2022/07/03 14:00 UTC NOAA

Auckland Airport, New Zealand (NZAA) 37-01S 174-48E 6M
Jul 03, 2022 - 10:00 AM EDT / 2022.07.03 1400 UTC
Wind: from the WSW (250 degrees) at 7 MPH (6 KT):0
Visibility: greater than 7 mile(s):0
Temperature: 50 F (10 C)
Dew Point: 46 F (8 C)
Relative Humidity: 87%
Pressure (altimeter): 30.30 in. Hg (1026 hPa)
ob: NZAA 031400Z AUTO 25006KT 9999 NCD 10/08 Q1026 NOSIG
cycle: 14

Station Type Date Time Source
NZAA TAF 2022/07/03 12:22 UTC NOAA

TAF NZAA 031116Z 0312/0412 VRB02KT 9999 -SHRA FEW025 SCT030
FM032300 22010KT 9999 FEW025
BECMG 0403/0405 VRB02KT

Example: see airport list